sensor_id;sensor_type;location;lat;lon;timestamp;temperature;humidity
4356;DHT22;64374;51.482;7.408;2023-05-10T00:02:14;15.90;99.90
4356;DHT22;64374;51.482;7.408;2023-05-10T00:04:42;15.90;99.90
4356;DHT22;64374;51.482;7.408;2023-05-10T00:07:11;15.90;99.90
4356;DHT22;64374;51.482;7.408;2023-05-10T00:09:39;15.80;99.90
4356;DHT22;64374;51.482;7.408;2023-05-10T00:12:08;15.70;99.90
4356;DHT22;64374;51.482;7.408;2023-05-10T00:14:39;15.30;99.90
4356;DHT22;64374;51.482;7.408;2023-05-10T00:17:07;15.40;99.90
4356;DHT22;64374;51.482;7.408;2023-05-10T00:19:35;15.60;99.90
4356;DHT22;64374;51.482;7.408;2023-05-10T00:22:04;15.70;99.90
4356;DHT22;64374;51.482;7.408;2023-05-10T00:24:32;15.40;99.90
4356;DHT22;64374;51.482;7.408;2023-05-10T00:27:02;15.50;99.90
4356;DHT22;64374;51.482;7.408;2023-05-10T00:29:30;15.60;99.90
4356;DHT22;64374;51.482;7.408;2023-05-10T00:32:02;15.50;99.90
4356;DHT22;64374;51.482;7.408;2023-05-10T00:34:31;15.40;99.90
4356;DHT22;64374;51.482;7.408;2023-05-10T00:36:59;15.50;99.90
4356;DHT22;64374;51.482;7.408;2023-05-10T00:39:27;15.10;99.90
4356;DHT22;64374;51.482;7.408;2023-05-10T00:41:56;15.10;99.90
4356;DHT22;64374;51.482;7.408;2023-05-10T00:44:26;15.10;99.90
4356;DHT22;64374;51.482;7.408;2023-05-10T00:46:54;15.30;99.90
4356;DHT22;64374;51.482;7.408;2023-05-10T00:49:24;15.40;99.90
4356;DHT22;64374;51.482;7.408;2023-05-10T00:51:53;15.50;99.90
4356;DHT22;64374;51.482;7.408;2023-05-10T00:54:23;15.80;99.90
4356;DHT22;64374;51.482;7.408;2023-05-10T00:56:51;16.00;99.90
4356;DHT22;64374;51.482;7.408;2023-05-10T00:59:20;15.80;99.90
4356;DHT22;64374;51.482;7.408;2023-05-10T01:01:50;16.00;99.90
4356;DHT22;64374;51.482;7.408;2023-05-10T01:04:20;16.10;99.90
4356;DHT22;64374;51.482;7.408;2023-05-10T01:06:53;16.10;99.90
4356;DHT22;64374;51.482;7.408;2023-05-10T01:09:24;16.10;99.90
4356;DHT22;64374;51.482;7.408;2023-05-10T01:11:54;16.30;99.90
4356;DHT22;64374;51.482;7.408;2023-05-10T01:14:25;16.30;99.90
4356;DHT22;64374;51.482;7.408;2023-05-10T01:16:54;16.20;99.90
4356;DHT22;64374;51.482;7.408;2023-05-10T01:19:26;15.90;99.90
4356;DHT22;64374;51.482;7.408;2023-05-10T01:22:04;15.80;99.90
4356;DHT22;64374;51.482;7.408;2023-05-10T01:25:03;15.90;99.90
4356;DHT22;64374;51.482;7.408;2023-05-10T01:27:52;15.80;99.90
4356;DHT22;64374;51.482;7.408;2023-05-10T01:31:02;16.10;99.90
4356;DHT22;64374;51.482;7.408;2023-05-10T01:33:35;15.90;99.90
4356;DHT22;64374;51.482;7.408;2023-05-10T01:36:13;15.80;99.90
4356;DHT22;64374;51.482;7.408;2023-05-10T01:38:50;16.10;99.90
4356;DHT22;64374;51.482;7.408;2023-05-10T01:41:24;16.20;99.90
4356;DHT22;64374;51.482;7.408;2023-05-10T01:44:01;16.10;99.90
4356;DHT22;64374;51.482;7.408;2023-05-10T01:46:35;16.30;99.90
4356;DHT22;64374;51.482;7.408;2023-05-10T01:49:09;16.10;99.90
4356;DHT22;64374;51.482;7.408;2023-05-10T01:51:41;16.30;99.90
4356;DHT22;64374;51.482;7.408;2023-05-10T01:54:12;16.40;99.90
4356;DHT22;64374;51.482;7.408;2023-05-10T01:56:41;16.60;99.90
4356;DHT22;64374;51.482;7.408;2023-05-10T01:59:14;16.60;99.90
4356;DHT22;64374;51.482;7.408;2023-05-10T02:01:45;16.60;99.90
4356;DHT22;64374;51.482;7.408;2023-05-10T02:04:22;16.60;99.90
4356;DHT22;64374;51.482;7.408;2023-05-10T02:06:54;16.90;99.90
4356;DHT22;64374;51.482;7.408;2023-05-10T02:09:24;16.70;99.90
4356;DHT22;64374;51.482;7.408;2023-05-10T02:11:54;16.60;99.90
4356;DHT22;64374;51.482;7.408;2023-05-10T02:14:24;16.50;99.90
4356;DHT22;64374;51.482;7.408;2023-05-10T02:16:55;16.10;99.90
4356;DHT22;64374;51.482;7.408;2023-05-10T02:19:29;16.30;99.90
4356;DHT22;64374;51.482;7.408;2023-05-10T02:22:00;16.00;99.90
4356;DHT22;64374;51.482;7.408;2023-05-10T02:24:29;16.00;99.90
4356;DHT22;64374;51.482;7.408;2023-05-10T02:27:00;16.10;99.90
4356;DHT22;64374;51.482;7.408;2023-05-10T02:29:31;16.20;99.90
4356;DHT22;64374;51.482;7.408;2023-05-10T02:32:03;16.20;99.90
4356;DHT22;64374;51.482;7.408;2023-05-10T02:34:39;16.10;99.90
4356;DHT22;64374;51.482;7.408;2023-05-10T02:37:08;16.10;99.90
4356;DHT22;64374;51.482;7.408;2023-05-10T02:39:37;15.80;99.90
4356;DHT22;64374;51.482;7.408;2023-05-10T02:42:15;15.60;99.90
4356;DHT22;64374;51.482;7.408;2023-05-10T02:44:47;15.70;99.90
4356;DHT22;64374;51.482;7.408;2023-05-10T02:47:18;15.70;99.90
4356;DHT22;64374;51.482;7.408;2023-05-10T02:49:49;15.70;99.90
4356;DHT22;64374;51.482;7.408;2023-05-10T02:52:23;15.60;99.90
4356;DHT22;64374;51.482;7.408;2023-05-10T02:54:55;15.80;99.90
4356;DHT22;64374;51.482;7.408;2023-05-10T02:57:28;15.80;99.90
4356;DHT22;64374;51.482;7.408;2023-05-10T02:59:58;15.80;99.90
4356;DHT22;64374;51.482;7.408;2023-05-10T03:02:29;15.70;99.90
4356;DHT22;64374;51.482;7.408;2023-05-10T03:05:00;15.70;99.90
4356;DHT22;64374;51.482;7.408;2023-05-10T03:07:31;15.40;99.90
4356;DHT22;64374;51.482;7.408;2023-05-10T03:10:01;15.50;99.90
4356;DHT22;64374;51.482;7.408;2023-05-10T03:12:52;15.80;99.90
4356;DHT22;64374;51.482;7.408;2023-05-10T03:15:36;15.80;99.90
4356;DHT22;64374;51.482;7.408;2023-05-10T03:18:10;16.00;99.90
4356;DHT22;64374;51.482;7.408;2023-05-10T03:20:43;16.00;99.90
4356;DHT22;64374;51.482;7.408;2023-05-10T03:23:22;16.20;99.90
4356;DHT22;64374;51.482;7.408;2023-05-10T03:25:54;16.30;99.90
4356;DHT22;64374;51.482;7.408;2023-05-10T03:28:25;16.30;99.90
4356;DHT22;64374;51.482;7.408;2023-05-10T03:30:55;16.40;99.90
4356;DHT22;64374;51.482;7.408;2023-05-10T03:33:24;16.40;99.90
4356;DHT22;64374;51.482;7.408;2023-05-10T03:35:54;16.40;99.90
4356;DHT22;64374;51.482;7.408;2023-05-10T03:38:23;16.00;99.90
4356;DHT22;64374;51.482;7.408;2023-05-10T03:40:51;15.80;99.90
4356;DHT22;64374;51.482;7.408;2023-05-10T03:43:21;15.80;99.90
4356;DHT22;64374;51.482;7.408;2023-05-10T03:45:51;15.90;99.90
4356;DHT22;64374;51.482;7.408;2023-05-10T03:48:19;16.00;99.90
4356;DHT22;64374;51.482;7.408;2023-05-10T03:50:49;16.10;99.90
4356;DHT22;64374;51.482;7.408;2023-05-10T03:53:19;16.20;99.90
4356;DHT22;64374;51.482;7.408;2023-05-10T03:55:49;16.20;99.90
4356;DHT22;64374;51.482;7.408;2023-05-10T03:58:17;16.10;99.90
4356;DHT22;64374;51.482;7.408;2023-05-10T04:00:46;15.90;99.90
4356;DHT22;64374;51.482;7.408;2023-05-10T04:03:14;15.80;99.90
4356;DHT22;64374;51.482;7.408;2023-05-10T04:05:43;15.80;99.90
4356;DHT22;64374;51.482;7.408;2023-05-10T04:08:35;15.80;99.90
4356;DHT22;64374;51.482;7.408;2023-05-10T04:11:06;16.00;99.90
4356;DHT22;64374;51.482;7.408;2023-05-10T04:13:43;15.70;99.90
4356;DHT22;64374;51.482;7.408;2023-05-10T04:16:11;15.60;99.90
4356;DHT22;64374;51.482;7.408;2023-05-10T04:18:40;15.80;99.90
4356;DHT22;64374;51.482;7.408;2023-05-10T04:21:11;16.00;99.90
4356;DHT22;64374;51.482;7.408;2023-05-10T04:23:41;15.90;99.90
4356;DHT22;64374;51.482;7.408;2023-05-10T04:26:10;16.00;99.90
4356;DHT22;64374;51.482;7.408;2023-05-10T04:28:38;16.10;99.90
4356;DHT22;64374;51.482;7.408;2023-05-10T04:31:08;15.60;99.90
4356;DHT22;64374;51.482;7.408;2023-05-10T04:33:37;15.70;99.90
4356;DHT22;64374;51.482;7.408;2023-05-10T04:36:06;15.70;99.90
4356;DHT22;64374;51.482;7.408;2023-05-10T04:38:34;15.80;99.90
4356;DHT22;64374;51.482;7.408;2023-05-10T04:41:08;15.90;99.90
4356;DHT22;64374;51.482;7.408;2023-05-10T04:43:38;15.60;99.90
4356;DHT22;64374;51.482;7.408;2023-05-10T04:46:07;15.70;99.90
4356;DHT22;64374;51.482;7.408;2023-05-10T04:48:35;15.30;99.90
4356;DHT22;64374;51.482;7.408;2023-05-10T04:51:03;15.10;99.90
4356;DHT22;64374;51.482;7.408;2023-05-10T04:53:33;15.00;99.90
4356;DHT22;64374;51.482;7.408;2023-05-10T04:56:02;15.20;99.90
4356;DHT22;64374;51.482;7.408;2023-05-10T04:58:33;15.30;99.90
4356;DHT22;64374;51.482;7.408;2023-05-10T05:01:05;15.40;99.90
4356;DHT22;64374;51.482;7.408;2023-05-10T05:03:35;15.50;99.90
4356;DHT22;64374;51.482;7.408;2023-05-10T05:06:04;15.60;99.90
4356;DHT22;64374;51.482;7.408;2023-05-10T05:08:33;15.50;99.90
4356;DHT22;64374;51.482;7.408;2023-05-10T05:11:01;15.40;99.90
4356;DHT22;64374;51.482;7.408;2023-05-10T05:13:32;15.40;99.90
4356;DHT22;64374;51.482;7.408;2023-05-10T05:16:01;15.40;99.90
4356;DHT22;64374;51.482;7.408;2023-05-10T05:18:29;15.40;99.90
4356;DHT22;64374;51.482;7.408;2023-05-10T05:20:58;15.50;99.90
4356;DHT22;64374;51.482;7.408;2023-05-10T05:23:27;15.80;99.90
4356;DHT22;64374;51.482;7.408;2023-05-10T05:25:55;15.60;99.90
4356;DHT22;64374;51.482;7.408;2023-05-10T05:28:24;15.60;99.90
4356;DHT22;64374;51.482;7.408;2023-05-10T05:31:15;15.60;99.90
4356;DHT22;64374;51.482;7.408;2023-05-10T05:33:45;15.60;99.90
4356;DHT22;64374;51.482;7.408;2023-05-10T05:36:13;15.20;99.90
4356;DHT22;64374;51.482;7.408;2023-05-10T05:38:41;15.30;99.90
4356;DHT22;64374;51.482;7.408;2023-05-10T05:41:10;15.50;99.90
4356;DHT22;64374;51.482;7.408;2023-05-10T05:43:38;15.50;99.90
4356;DHT22;64374;51.482;7.408;2023-05-10T05:46:07;15.40;99.90
4356;DHT22;64374;51.482;7.408;2023-05-10T05:48:37;15.60;99.90
4356;DHT22;64374;51.482;7.408;2023-05-10T05:51:05;15.70;99.90
4356;DHT22;64374;51.482;7.408;2023-05-10T05:53:33;15.80;99.90
4356;DHT22;64374;51.482;7.408;2023-05-10T05:56:02;15.60;99.90
4356;DHT22;64374;51.482;7.408;2023-05-10T05:58:30;15.80;99.90
4356;DHT22;64374;51.482;7.408;2023-05-10T06:00:59;15.70;99.90
4356;DHT22;64374;51.482;7.408;2023-05-10T06:03:27;15.90;99.90
4356;DHT22;64374;51.482;7.408;2023-05-10T06:05:59;15.70;99.90
4356;DHT22;64374;51.482;7.408;2023-05-10T06:08:28;15.90;99.90
4356;DHT22;64374;51.482;7.408;2023-05-10T06:10:56;15.70;99.90
4356;DHT22;64374;51.482;7.408;2023-05-10T06:13:25;15.70;99.90
4356;DHT22;64374;51.482;7.408;2023-05-10T06:15:56;15.60;99.90
4356;DHT22;64374;51.482;7.408;2023-05-10T06:18:24;15.40;99.90
4356;DHT22;64374;51.482;7.408;2023-05-10T06:20:53;15.60;99.90
4356;DHT22;64374;51.482;7.408;2023-05-10T06:23:23;15.60;99.90
4356;DHT22;64374;51.482;7.408;2023-05-10T06:25:53;15.80;99.90
4356;DHT22;64374;51.482;7.408;2023-05-10T06:28:21;15.90;99.90
4356;DHT22;64374;51.482;7.408;2023-05-10T06:30:51;15.80;99.90
4356;DHT22;64374;51.482;7.408;2023-05-10T06:33:19;15.60;99.90
4356;DHT22;64374;51.482;7.408;2023-05-10T06:35:48;15.20;99.90
4356;DHT22;64374;51.482;7.408;2023-05-10T06:38:16;15.10;99.90
4356;DHT22;64374;51.482;7.408;2023-05-10T06:40:46;15.20;99.90
4356;DHT22;64374;51.482;7.408;2023-05-10T06:43:14;15.20;99.90
4356;DHT22;64374;51.482;7.408;2023-05-10T06:45:44;15.30;99.90
4356;DHT22;64374;51.482;7.408;2023-05-10T06:48:12;15.30;99.90
4356;DHT22;64374;51.482;7.408;2023-05-10T06:50:41;15.50;99.90
4356;DHT22;64374;51.482;7.408;2023-05-10T06:53:11;15.20;99.90
4356;DHT22;64374;51.482;7.408;2023-05-10T06:55:42;15.20;99.90
4356;DHT22;64374;51.482;7.408;2023-05-10T06:58:12;15.40;99.90
4356;DHT22;64374;51.482;7.408;2023-05-10T07:00:42;15.60;99.90
4356;DHT22;64374;51.482;7.408;2023-05-10T07:03:17;15.80;99.90
4356;DHT22;64374;51.482;7.408;2023-05-10T07:05:48;15.60;99.90
4356;DHT22;64374;51.482;7.408;2023-05-10T07:08:16;15.50;99.90
4356;DHT22;64374;51.482;7.408;2023-05-10T07:10:45;15.80;99.90
4356;DHT22;64374;51.482;7.408;2023-05-10T07:13:14;16.00;99.90
4356;DHT22;64374;51.482;7.408;2023-05-10T07:15:43;16.00;99.90
4356;DHT22;64374;51.482;7.408;2023-05-10T07:18:12;16.00;99.90
4356;DHT22;64374;51.482;7.408;2023-05-10T07:20:40;16.20;99.90
4356;DHT22;64374;51.482;7.408;2023-05-10T07:23:10;15.90;99.90
4356;DHT22;64374;51.482;7.408;2023-05-10T07:25:38;16.10;99.90
4356;DHT22;64374;51.482;7.408;2023-05-10T07:28:06;16.30;99.90
4356;DHT22;64374;51.482;7.408;2023-05-10T07:30:35;16.20;99.90
4356;DHT22;64374;51.482;7.408;2023-05-10T07:33:05;16.50;99.90
4356;DHT22;64374;51.482;7.408;2023-05-10T07:35:34;16.30;99.90
4356;DHT22;64374;51.482;7.408;2023-05-10T07:38:02;16.20;99.90
4356;DHT22;64374;51.482;7.408;2023-05-10T07:40:31;16.60;99.90
4356;DHT22;64374;51.482;7.408;2023-05-10T07:43:00;16.50;99.90
4356;DHT22;64374;51.482;7.408;2023-05-10T07:45:29;16.20;99.90
4356;DHT22;64374;51.482;7.408;2023-05-10T07:47:58;16.00;99.90
4356;DHT22;64374;51.482;7.408;2023-05-10T07:50:27;16.10;99.90
4356;DHT22;64374;51.482;7.408;2023-05-10T07:52:56;16.40;99.90
4356;DHT22;64374;51.482;7.408;2023-05-10T07:55:24;16.40;99.90
4356;DHT22;64374;51.482;7.408;2023-05-10T07:57:53;16.00;99.90
4356;DHT22;64374;51.482;7.408;2023-05-10T08:00:21;16.00;99.90
4356;DHT22;64374;51.482;7.408;2023-05-10T08:02:50;16.40;99.90
4356;DHT22;64374;51.482;7.408;2023-05-10T08:05:19;16.20;99.90
4356;DHT22;64374;51.482;7.408;2023-05-10T08:07:49;16.30;99.90
4356;DHT22;64374;51.482;7.408;2023-05-10T08:10:17;16.50;99.90
4356;DHT22;64374;51.482;7.408;2023-05-10T08:12:45;16.80;99.90
4356;DHT22;64374;51.482;7.408;2023-05-10T08:15:13;16.90;99.90
4356;DHT22;64374;51.482;7.408;2023-05-10T08:17:43;16.60;99.90
4356;DHT22;64374;51.482;7.408;2023-05-10T08:20:11;16.40;99.90
4356;DHT22;64374;51.482;7.408;2023-05-10T08:22:45;16.20;99.90
4356;DHT22;64374;51.482;7.408;2023-05-10T08:25:15;16.40;99.90
4356;DHT22;64374;51.482;7.408;2023-05-10T08:27:46;16.50;99.90
4356;DHT22;64374;51.482;7.408;2023-05-10T08:30:14;16.80;99.90
4356;DHT22;64374;51.482;7.408;2023-05-10T08:32:42;16.60;99.90
4356;DHT22;64374;51.482;7.408;2023-05-10T08:35:10;16.20;99.90
4356;DHT22;64374;51.482;7.408;2023-05-10T08:37:39;16.20;99.90
4356;DHT22;64374;51.482;7.408;2023-05-10T08:40:12;16.40;99.90
4356;DHT22;64374;51.482;7.408;2023-05-10T08:42:50;16.50;99.90
4356;DHT22;64374;51.482;7.408;2023-05-10T08:45:20;16.50;99.90
4356;DHT22;64374;51.482;7.408;2023-05-10T08:47:50;16.60;99.90
4356;DHT22;64374;51.482;7.408;2023-05-10T08:50:20;16.70;99.90
4356;DHT22;64374;51.482;7.408;2023-05-10T08:52:53;16.30;99.90
4356;DHT22;64374;51.482;7.408;2023-05-10T08:55:25;16.10;99.90
4356;DHT22;64374;51.482;7.408;2023-05-10T08:57:53;16.10;99.90
4356;DHT22;64374;51.482;7.408;2023-05-10T09:00:22;15.80;99.90
4356;DHT22;64374;51.482;7.408;2023-05-10T09:02:51;15.90;99.90
4356;DHT22;64374;51.482;7.408;2023-05-10T09:05:20;16.20;99.90
4356;DHT22;64374;51.482;7.408;2023-05-10T09:07:48;16.20;99.90
4356;DHT22;64374;51.482;7.408;2023-05-10T09:10:18;16.30;99.90
4356;DHT22;64374;51.482;7.408;2023-05-10T09:12:50;16.20;99.90
4356;DHT22;64374;51.482;7.408;2023-05-10T09:15:19;16.50;99.90
4356;DHT22;64374;51.482;7.408;2023-05-10T09:17:49;16.40;99.90
4356;DHT22;64374;51.482;7.408;2023-05-10T09:20:18;16.60;99.90
4356;DHT22;64374;51.482;7.408;2023-05-10T09:22:47;16.70;99.90
4356;DHT22;64374;51.482;7.408;2023-05-10T09:25:17;16.90;99.90
4356;DHT22;64374;51.482;7.408;2023-05-10T09:27:48;17.30;99.90
4356;DHT22;64374;51.482;7.408;2023-05-10T09:30:23;17.50;99.90
4356;DHT22;64374;51.482;7.408;2023-05-10T09:32:53;17.60;99.90
4356;DHT22;64374;51.482;7.408;2023-05-10T09:35:26;17.40;99.90
4356;DHT22;64374;51.482;7.408;2023-05-10T09:37:57;17.40;99.90
4356;DHT22;64374;51.482;7.408;2023-05-10T09:40:27;17.50;99.90
4356;DHT22;64374;51.482;7.408;2023-05-10T09:43:00;17.60;99.90
4356;DHT22;64374;51.482;7.408;2023-05-10T09:45:31;17.50;99.90
4356;DHT22;64374;51.482;7.408;2023-05-10T09:48:04;17.30;99.90
4356;DHT22;64374;51.482;7.408;2023-05-10T09:50:33;17.00;99.90
4356;DHT22;64374;51.482;7.408;2023-05-10T09:53:03;17.30;99.90
4356;DHT22;64374;51.482;7.408;2023-05-10T09:55:40;17.50;99.90
4356;DHT22;64374;51.482;7.408;2023-05-10T09:58:10;17.70;99.90
4356;DHT22;64374;51.482;7.408;2023-05-10T10:00:40;17.70;99.90
4356;DHT22;64374;51.482;7.408;2023-05-10T10:03:12;17.60;99.90
4356;DHT22;64374;51.482;7.408;2023-05-10T10:05:41;17.90;99.90
4356;DHT22;64374;51.482;7.408;2023-05-10T10:08:13;18.00;99.90
4356;DHT22;64374;51.482;7.408;2023-05-10T10:10:42;17.80;99.90
4356;DHT22;64374;51.482;7.408;2023-05-10T10:13:15;18.10;99.90
4356;DHT22;64374;51.482;7.408;2023-05-10T10:15:44;17.60;99.90
4356;DHT22;64374;51.482;7.408;2023-05-10T10:18:14;17.90;99.90
4356;DHT22;64374;51.482;7.408;2023-05-10T10:20:43;18.20;99.90
4356;DHT22;64374;51.482;7.408;2023-05-10T10:23:13;18.30;99.90
4356;DHT22;64374;51.482;7.408;2023-05-10T10:25:45;18.20;99.90
4356;DHT22;64374;51.482;7.408;2023-05-10T10:28:23;18.20;99.90
4356;DHT22;64374;51.482;7.408;2023-05-10T10:30:56;18.10;99.90
4356;DHT22;64374;51.482;7.408;2023-05-10T10:33:40;17.50;99.90
4356;DHT22;64374;51.482;7.408;2023-05-10T10:36:16;17.90;99.90
4356;DHT22;64374;51.482;7.408;2023-05-10T10:39:01;18.20;99.90
4356;DHT22;64374;51.482;7.408;2023-05-10T10:41:40;18.50;99.90
4356;DHT22;64374;51.482;7.408;2023-05-10T10:44:35;18.10;99.90
4356;DHT22;64374;51.482;7.408;2023-05-10T10:47:10;18.00;99.90
4356;DHT22;64374;51.482;7.408;2023-05-10T10:49:44;18.10;99.90
4356;DHT22;64374;51.482;7.408;2023-05-10T10:52:22;18.20;99.90
4356;DHT22;64374;51.482;7.408;2023-05-10T10:54:51;17.50;99.90
4356;DHT22;64374;51.482;7.408;2023-05-10T10:57:20;17.70;99.90
4356;DHT22;64374;51.482;7.408;2023-05-10T10:59:51;17.70;99.90
4356;DHT22;64374;51.482;7.408;2023-05-10T11:02:43;17.30;99.90
4356;DHT22;64374;51.482;7.408;2023-05-10T11:05:45;17.30;99.90
4356;DHT22;64374;51.482;7.408;2023-05-10T11:08:26;17.20;99.90
4356;DHT22;64374;51.482;7.408;2023-05-10T11:11:07;17.30;99.90
4356;DHT22;64374;51.482;7.408;2023-05-10T11:13:39;17.40;99.90
4356;DHT22;64374;51.482;7.408;2023-05-10T11:16:15;17.10;99.90
4356;DHT22;64374;51.482;7.408;2023-05-10T11:18:57;17.30;99.90
4356;DHT22;64374;51.482;7.408;2023-05-10T11:21:28;17.40;99.90
4356;DHT22;64374;51.482;7.408;2023-05-10T11:23:58;17.50;99.90
4356;DHT22;64374;51.482;7.408;2023-05-10T11:26:31;17.30;99.90
4356;DHT22;64374;51.482;7.408;2023-05-10T11:29:01;17.50;99.90
4356;DHT22;64374;51.482;7.408;2023-05-10T11:31:34;17.40;99.90
4356;DHT22;64374;51.482;7.408;2023-05-10T11:34:03;17.50;99.90
4356;DHT22;64374;51.482;7.408;2023-05-10T11:36:35;17.50;99.90
4356;DHT22;64374;51.482;7.408;2023-05-10T11:39:05;17.30;99.90
4356;DHT22;64374;51.482;7.408;2023-05-10T11:41:33;17.30;99.90
4356;DHT22;64374;51.482;7.408;2023-05-10T11:44:02;17.60;99.90
4356;DHT22;64374;51.482;7.408;2023-05-10T11:46:32;17.90;99.90
4356;DHT22;64374;51.482;7.408;2023-05-10T11:49:02;17.60;99.90
4356;DHT22;64374;51.482;7.408;2023-05-10T11:51:34;18.10;99.90
4356;DHT22;64374;51.482;7.408;2023-05-10T11:54:06;17.60;99.90
4356;DHT22;64374;51.482;7.408;2023-05-10T11:56:36;17.70;99.90
4356;DHT22;64374;51.482;7.408;2023-05-10T11:59:05;17.80;99.90
4356;DHT22;64374;51.482;7.408;2023-05-10T12:01:36;17.70;99.90
4356;DHT22;64374;51.482;7.408;2023-05-10T12:04:06;17.80;99.90
4356;DHT22;64374;51.482;7.408;2023-05-10T12:06:39;17.90;99.90
4356;DHT22;64374;51.482;7.408;2023-05-10T12:09:08;18.00;99.90
4356;DHT22;64374;51.482;7.408;2023-05-10T12:11:38;17.90;99.90
4356;DHT22;64374;51.482;7.408;2023-05-10T12:14:10;18.20;99.90
4356;DHT22;64374;51.482;7.408;2023-05-10T12:16:40;18.30;99.90
4356;DHT22;64374;51.482;7.408;2023-05-10T12:19:11;18.60;99.90
4356;DHT22;64374;51.482;7.408;2023-05-10T12:21:40;19.00;99.90
4356;DHT22;64374;51.482;7.408;2023-05-10T12:24:09;18.90;99.90
4356;DHT22;64374;51.482;7.408;2023-05-10T12:26:37;18.60;99.90
4356;DHT22;64374;51.482;7.408;2023-05-10T12:29:13;18.50;99.90
4356;DHT22;64374;51.482;7.408;2023-05-10T12:31:57;18.40;99.90
4356;DHT22;64374;51.482;7.408;2023-05-10T12:34:29;18.50;99.90
4356;DHT22;64374;51.482;7.408;2023-05-10T12:36:59;18.40;99.90
4356;DHT22;64374;51.482;7.408;2023-05-10T12:39:39;18.50;99.90
4356;DHT22;64374;51.482;7.408;2023-05-10T12:42:08;18.40;99.90
4356;DHT22;64374;51.482;7.408;2023-05-10T12:44:37;18.00;99.90
4356;DHT22;64374;51.482;7.408;2023-05-10T12:47:07;18.20;99.90
4356;DHT22;64374;51.482;7.408;2023-05-10T12:49:35;18.10;99.90
4356;DHT22;64374;51.482;7.408;2023-05-10T12:52:04;18.00;99.90
4356;DHT22;64374;51.482;7.408;2023-05-10T12:54:33;17.50;99.90
4356;DHT22;64374;51.482;7.408;2023-05-10T12:57:01;17.70;99.90
4356;DHT22;64374;51.482;7.408;2023-05-10T12:59:32;18.10;99.90
4356;DHT22;64374;51.482;7.408;2023-05-10T13:02:04;17.90;99.90
4356;DHT22;64374;51.482;7.408;2023-05-10T13:04:36;18.40;99.90
4356;DHT22;64374;51.482;7.408;2023-05-10T13:07:07;17.90;99.90
4356;DHT22;64374;51.482;7.408;2023-05-10T13:09:35;18.20;99.90
4356;DHT22;64374;51.482;7.408;2023-05-10T13:12:04;18.60;99.90
4356;DHT22;64374;51.482;7.408;2023-05-10T13:14:36;19.00;99.90
4356;DHT22;64374;51.482;7.408;2023-05-10T13:17:08;18.80;99.90
4356;DHT22;64374;51.482;7.408;2023-05-10T13:19:38;18.80;99.90
4356;DHT22;64374;51.482;7.408;2023-05-10T13:22:08;18.50;99.90
4356;DHT22;64374;51.482;7.408;2023-05-10T13:24:37;18.80;99.90
4356;DHT22;64374;51.482;7.408;2023-05-10T13:27:05;18.90;99.90
4356;DHT22;64374;51.482;7.408;2023-05-10T13:29:33;18.90;99.90
4356;DHT22;64374;51.482;7.408;2023-05-10T13:32:02;18.90;99.90
4356;DHT22;64374;51.482;7.408;2023-05-10T13:34:30;19.20;99.90
4356;DHT22;64374;51.482;7.408;2023-05-10T13:37:02;19.30;99.90
4356;DHT22;64374;51.482;7.408;2023-05-10T13:39:30;18.90;99.90
4356;DHT22;64374;51.482;7.408;2023-05-10T13:42:01;18.40;99.90
4356;DHT22;64374;51.482;7.408;2023-05-10T13:44:31;18.60;99.90
4356;DHT22;64374;51.482;7.408;2023-05-10T13:47:02;18.40;99.90
4356;DHT22;64374;51.482;7.408;2023-05-10T13:49:32;18.40;99.90
4356;DHT22;64374;51.482;7.408;2023-05-10T13:52:04;18.30;99.90
4356;DHT22;64374;51.482;7.408;2023-05-10T13:54:33;18.20;99.90
4356;DHT22;64374;51.482;7.408;2023-05-10T13:57:02;18.40;99.90
4356;DHT22;64374;51.482;7.408;2023-05-10T13:59:31;18.80;99.90
4356;DHT22;64374;51.482;7.408;2023-05-10T14:02:00;19.00;99.90
4356;DHT22;64374;51.482;7.408;2023-05-10T14:04:30;19.40;99.90
4356;DHT22;64374;51.482;7.408;2023-05-10T14:06:59;18.80;99.90
4356;DHT22;64374;51.482;7.408;2023-05-10T14:09:29;18.60;99.90
4356;DHT22;64374;51.482;7.408;2023-05-10T14:11:58;18.50;99.90
4356;DHT22;64374;51.482;7.408;2023-05-10T14:14:26;19.10;99.90
4356;DHT22;64374;51.482;7.408;2023-05-10T14:16:56;19.30;99.90
4356;DHT22;64374;51.482;7.408;2023-05-10T14:19:26;19.80;99.90
4356;DHT22;64374;51.482;7.408;2023-05-10T14:21:55;20.30;99.90
4356;DHT22;64374;51.482;7.408;2023-05-10T14:24:23;20.20;99.90
4356;DHT22;64374;51.482;7.408;2023-05-10T14:27:00;20.30;99.90
4356;DHT22;64374;51.482;7.408;2023-05-10T14:29:30;19.70;99.90
4356;DHT22;64374;51.482;7.408;2023-05-10T14:31:59;19.50;99.90
4356;DHT22;64374;51.482;7.408;2023-05-10T14:34:29;19.90;99.90
4356;DHT22;64374;51.482;7.408;2023-05-10T14:36:59;20.40;99.90
4356;DHT22;64374;51.482;7.408;2023-05-10T14:39:27;20.20;99.90
4356;DHT22;64374;51.482;7.408;2023-05-10T14:41:57;20.10;99.90
4356;DHT22;64374;51.482;7.408;2023-05-10T14:44:28;20.10;99.90
4356;DHT22;64374;51.482;7.408;2023-05-10T14:46:56;20.20;99.90
4356;DHT22;64374;51.482;7.408;2023-05-10T14:49:24;20.20;99.90
4356;DHT22;64374;51.482;7.408;2023-05-10T14:51:52;20.70;99.90
4356;DHT22;64374;51.482;7.408;2023-05-10T14:54:22;20.70;99.90
4356;DHT22;64374;51.482;7.408;2023-05-10T14:56:50;20.10;99.90
4356;DHT22;64374;51.482;7.408;2023-05-10T14:59:20;20.60;99.90
4356;DHT22;64374;51.482;7.408;2023-05-10T15:01:50;20.30;99.90
4356;DHT22;64374;51.482;7.408;2023-05-10T15:04:19;20.20;99.90
4356;DHT22;64374;51.482;7.408;2023-05-10T15:06:48;20.60;99.90
4356;DHT22;64374;51.482;7.408;2023-05-10T15:09:17;20.40;99.90
4356;DHT22;64374;51.482;7.408;2023-05-10T15:11:45;20.50;99.90
4356;DHT22;64374;51.482;7.408;2023-05-10T15:14:13;20.70;99.90
4356;DHT22;64374;51.482;7.408;2023-05-10T15:16:42;21.10;99.90
4356;DHT22;64374;51.482;7.408;2023-05-10T15:19:14;21.10;99.90
4356;DHT22;64374;51.482;7.408;2023-05-10T15:21:42;21.00;99.90
4356;DHT22;64374;51.482;7.408;2023-05-10T15:24:12;20.60;99.90
4356;DHT22;64374;51.482;7.408;2023-05-10T15:26:40;20.90;99.90
4356;DHT22;64374;51.482;7.408;2023-05-10T15:29:08;20.90;99.90
4356;DHT22;64374;51.482;7.408;2023-05-10T15:31:37;20.60;99.90
4356;DHT22;64374;51.482;7.408;2023-05-10T15:34:06;20.70;99.90
4356;DHT22;64374;51.482;7.408;2023-05-10T15:36:36;20.30;99.90
4356;DHT22;64374;51.482;7.408;2023-05-10T15:39:04;20.40;99.90
4356;DHT22;64374;51.482;7.408;2023-05-10T15:41:33;20.70;99.90
4356;DHT22;64374;51.482;7.408;2023-05-10T15:44:01;20.90;99.90
4356;DHT22;64374;51.482;7.408;2023-05-10T15:46:30;20.90;99.90
4356;DHT22;64374;51.482;7.408;2023-05-10T15:48:58;20.70;99.90
4356;DHT22;64374;51.482;7.408;2023-05-10T15:51:28;20.50;99.90
4356;DHT22;64374;51.482;7.408;2023-05-10T15:53:58;20.20;99.90
4356;DHT22;64374;51.482;7.408;2023-05-10T15:56:34;20.10;99.90
4356;DHT22;64374;51.482;7.408;2023-05-10T15:59:03;20.30;99.90
4356;DHT22;64374;51.482;7.408;2023-05-10T16:01:31;20.40;99.90
4356;DHT22;64374;51.482;7.408;2023-05-10T16:04:00;20.60;99.90
4356;DHT22;64374;51.482;7.408;2023-05-10T16:06:30;20.10;99.90
4356;DHT22;64374;51.482;7.408;2023-05-10T16:09:00;20.30;99.90